WXM80 ListenWXM80 Stop

You find our weather info also at:

UK Metoffice

WeatherCloud

Weather Underground

Northeastern Weather Network

AWEKAS

Citizen Weather Observer Program (CWOP)

HAMweather, WeatherForYou, PWS Weather


Weather Underground History page Text

Daily Summary for February 27, 2018 Units:  Both    English   Metric
« Previous Day
Next Day »
Daily Weekly Monthly Yearly Custom
  High: Low: Average:
Temperature: 56.8 °F /  13.8 °C 32.3 °F /  0.2 °C 43.8 °F /  6.6 °C
Dew Point: 32.3 °F /  0.2 °C 25.6 °F /  -3.6 °C 29.4 °F /  -1.4 °C
Humidity: 85 % 33 % 60 %
Wind Speed: 9.0 mph /  14.5 km/h - 2.7 mph /  4.3 km/h
Wind Gust: 15.0 mph /  24.1 km/h - -
Wind:- - WSW
Pressure: 30.14 in /  1020.5 hPa 29.94 in /  1013.8 hPa -
Precipitation: 0.00 in /  0 mm    
Historical Graphs
 
 
Tabular Data for February 27, 2018
Time Temperature Dew Point Pressure Wind Wind Speed Wind Gust Humidity Rainfall Rate (Hourly)
00:03 36.9 °F /  2.7 °C 31.0 °F /  -0.6 °C 30.00 in /  1015.8 hPa WSW 1.1 mph /  1.8 km/h 2.3 mph /  3.7 km/h 79 % 0.00 in /  0 mm
00:08 36.8 °F /  2.7 °C 30.9 °F /  -0.6 °C 30.00 in /  1015.8 hPa Calm     79 % 0.00 in /  0 mm
00:13 36.7 °F /  2.6 °C 30.8 °F /  -0.7 °C 30.01 in /  1016.1 hPa Calm   1.2 mph /  1.9 km/h 79 % 0.00 in /  0 mm
00:18 36.6 °F /  2.6 °C 30.7 °F /  -0.7 °C 30.01 in /  1016.1 hPa WSW 0.7 mph /  1.1 km/h 2.3 mph /  3.7 km/h 79 % 0.00 in /  0 mm
00:23 36.4 °F /  2.4 °C 30.5 °F /  -0.8 °C 30.01 in /  1016.1 hPa WSW 0.3 mph /  0.5 km/h 1.2 mph /  1.9 km/h 79 % 0.00 in /  0 mm
00:29 36.2 °F /  2.3 °C 30.3 °F /  -0.9 °C 30.01 in /  1016.1 hPa WSW 1.0 mph /  1.6 km/h 2.3 mph /  3.7 km/h 79 % 0.00 in /  0 mm
00:34 36.1 °F /  2.3 °C 30.2 °F /  -1 °C 30.01 in /  1016.1 hPa WSW 1.5 mph /  2.4 km/h 3.0 mph /  4.8 km/h 79 % 0.00 in /  0 mm
00:39 35.9 °F /  2.2 °C 30.0 °F /  -1.1 °C 30.01 in /  1016.1 hPa WSW 1.6 mph /  2.6 km/h 2.3 mph /  3.7 km/h 79 % 0.00 in /  0 mm
00:44 35.8 °F /  2.1 °C 29.9 °F /  -1.2 °C 30.02 in /  1016.5 hPa WSW 1.0 mph /  1.6 km/h 2.3 mph /  3.7 km/h 79 % 0.00 in /  0 mm
00:49 35.7 °F /  2.1 °C 29.8 °F /  -1.2 °C 30.02 in /  1016.5 hPa WSW 0.8 mph /  1.3 km/h 2.3 mph /  3.7 km/h 79 % 0.00 in /  0 mm
00:54 35.5 °F /  1.9 °C 29.6 °F /  -1.3 °C 30.02 in /  1016.5 hPa WSW 1.9 mph /  3.1 km/h 3.5 mph /  5.6 km/h 79 % 0.00 in /  0 mm
00:59 35.4 °F /  1.9 °C 29.2 °F /  -1.6 °C 30.02 in /  1016.5 hPa Calm     78 % 0.00 in /  0 mm
01:04 35.4 °F /  1.9 °C 29.2 °F /  -1.6 °C 30.02 in /  1016.5 hPa WNW 2.8 mph /  4.5 km/h 5.8 mph /  9.3 km/h 78 % 0.00 in /  0 mm
01:09 35.4 °F /  1.9 °C 28.9 °F /  -1.7 °C 30.02 in /  1016.5 hPa WNW 0.6 mph /  1 km/h 1.2 mph /  1.9 km/h 77 % 0.00 in /  0 mm
01:14 35.4 °F /  1.9 °C 28.9 °F /  -1.7 °C 30.03 in /  1016.8 hPa Calm     77 % 0.00 in /  0 mm
01:19 35.5 °F /  1.9 °C 28.7 °F /  -1.8 °C 30.03 in /  1016.8 hPa WNW 0.5 mph /  0.8 km/h 1.2 mph /  1.9 km/h 76 % 0.00 in /  0 mm
01:24 35.5 °F /  1.9 °C 28.4 °F /  -2 °C 30.03 in /  1016.8 hPa WSW 1.5 mph /  2.4 km/h 3.5 mph /  5.6 km/h 75 % 0.00 in /  0 mm
01:29 35.6 °F /  2 °C 28.5 °F /  -1.9 °C 30.04 in /  1017.2 hPa West 1.4 mph /  2.3 km/h 3.5 mph /  5.6 km/h 75 % 0.00 in /  0 mm
01:34 35.6 °F /  2 °C 28.5 °F /  -1.9 °C 30.04 in /  1017.2 hPa Calm     75 % 0.00 in /  0 mm
01:39 35.7 °F /  2.1 °C 28.6 °F /  -1.9 °C 30.04 in /  1017.2 hPa Calm     75 % 0.00 in /  0 mm
01:44 35.7 °F /  2.1 °C 28.9 °F /  -1.7 °C 30.05 in /  1017.5 hPa West 1.7 mph /  2.7 km/h 2.3 mph /  3.7 km/h 76 % 0.00 in /  0 mm
01:49 35.6 °F /  2 °C 28.8 °F /  -1.8 °C 30.05 in /  1017.5 hPa West 0.1 mph /  0.2 km/h 2.3 mph /  3.7 km/h 76 % 0.00 in /  0 mm
01:54 35.5 °F /  1.9 °C 28.7 °F /  -1.8 °C 30.05 in /  1017.5 hPa West 0.3 mph /  0.5 km/h 1.2 mph /  1.9 km/h 76 % 0.00 in /  0 mm
01:59 35.3 °F /  1.8 °C 28.2 °F /  -2.1 °C 30.05 in /  1017.5 hPa Calm   2.3 mph /  3.7 km/h 75 % 0.00 in /  0 mm
02:05 35.3 °F /  1.8 °C 28.5 °F /  -1.9 °C 30.05 in /  1017.5 hPa West 0.7 mph /  1.1 km/h 3.5 mph /  5.6 km/h 76 % 0.00 in /  0 mm
02:10 35.2 °F /  1.8 °C 28.7 °F /  -1.8 °C 30.05 in /  1017.5 hPa West 1.2 mph /  1.9 km/h 2.3 mph /  3.7 km/h 77 % 0.00 in /  0 mm
02:15 35.1 °F /  1.7 °C 28.6 °F /  -1.9 °C 30.05 in /  1017.5 hPa Calm   1.2 mph /  1.9 km/h 77 % 0.00 in /  0 mm
02:20 35.0 °F /  1.7 °C 28.5 °F /  -1.9 °C 30.05 in /  1017.5 hPa Calm     77 % 0.00 in /  0 mm
02:25 34.8 °F /  1.6 °C 28.6 °F /  -1.9 °C 30.05 in /  1017.5 hPa Calm     78 % 0.00 in /  0 mm
02:30 34.6 °F /  1.4 °C 28.4 °F /  -2 °C 30.05 in /  1017.5 hPa Calm     78 % 0.00 in /  0 mm
02:35 34.5 °F /  1.4 °C 28.3 °F /  -2.1 °C 30.06 in /  1017.8 hPa West 0.1 mph /  0.2 km/h 1.0 mph /  1.6 km/h 78 % 0.00 in /  0 mm
02:40 34.2 °F /  1.2 °C 28.4 °F /  -2 °C 30.06 in /  1017.8 hPa West 0.4 mph /  0.6 km/h 1.2 mph /  1.9 km/h 79 % 0.00 in /  0 mm
02:45 34.0 °F /  1.1 °C 28.2 °F /  -2.1 °C 30.05 in /  1017.5 hPa West 1.4 mph /  2.3 km/h 2.3 mph /  3.7 km/h 79 % 0.00 in /  0 mm
02:50 33.8 °F /  1 °C 28.3 °F /  -2.1 °C 30.05 in /  1017.5 hPa Calm     80 % 0.00 in /  0 mm
02:55 33.7 °F /  0.9 °C 28.2 °F /  -2.1 °C 30.06 in /  1017.8 hPa Calm     80 % 0.00 in /  0 mm
03:00 33.6 °F /  0.9 °C 28.1 °F /  -2.2 °C 30.06 in /  1017.8 hPa Calm     80 % 0.00 in /  0 mm
03:05 33.5 °F /  0.8 °C 28.0 °F /  -2.2 °C 30.06 in /  1017.8 hPa Calm   1.2 mph /  1.9 km/h 80 % 0.00 in /  0 mm
03:10 33.4 °F /  0.8 °C 27.9 °F /  -2.3 °C 30.06 in /  1017.8 hPa Calm     80 % 0.00 in /  0 mm
03:15 33.3 °F /  0.7 °C 27.8 °F /  -2.3 °C 30.06 in /  1017.8 hPa Calm     80 % 0.00 in /  0 mm
03:21 33.2 °F /  0.7 °C 27.7 °F /  -2.4 °C 30.06 in /  1017.8 hPa Calm     80 % 0.00 in /  0 mm
03:26 33.1 °F /  0.6 °C 27.9 °F /  -2.3 °C 30.06 in /  1017.8 hPa Calm   1.0 mph /  1.6 km/h 81 % 0.00 in /  0 mm
03:31 33.0 °F /  0.6 °C 27.8 °F /  -2.3 °C 30.06 in /  1017.8 hPa Calm     81 % 0.00 in /  0 mm
03:36 32.8 °F /  0.4 °C 27.6 °F /  -2.4 °C 30.05 in /  1017.5 hPa West 0.1 mph /  0.2 km/h 2.3 mph /  3.7 km/h 81 % 0.00 in /  0 mm
03:41 32.7 °F /  0.4 °C 27.5 °F /  -2.5 °C 30.06 in /  1017.8 hPa West 1.2 mph /  1.9 km/h 2.3 mph /  3.7 km/h 81 % 0.00 in /  0 mm
03:46 32.6 °F /  0.3 °C 27.7 °F /  -2.4 °C 30.06 in /  1017.8 hPa West 1.3 mph /  2.1 km/h 3.0 mph /  4.8 km/h 82 % 0.00 in /  0 mm
03:51 32.5 °F /  0.3 °C 27.6 °F /  -2.4 °C 30.06 in /  1017.8 hPa West 0.8 mph /  1.3 km/h 2.3 mph /  3.7 km/h 82 % 0.00 in /  0 mm
03:56 32.4 °F /  0.2 °C 27.8 °F /  -2.3 °C 30.06 in /  1017.8 hPa West 0.5 mph /  0.8 km/h 2.0 mph /  3.2 km/h 83 % 0.00 in /  0 mm
04:01 32.3 °F /  0.2 °C 27.7 °F /  -2.4 °C 30.06 in /  1017.8 hPa Calm     83 % 0.00 in /  0 mm
04:06 32.3 °F /  0.2 °C 27.7 °F /  -2.4 °C 30.06 in /  1017.8 hPa Calm   1.2 mph /  1.9 km/h 83 % 0.00 in /  0 mm
04:11 32.4 °F /  0.2 °C 27.8 °F /  -2.3 °C 30.06 in /  1017.8 hPa Calm   1.2 mph /  1.9 km/h 83 % 0.00 in /  0 mm
04:16 32.4 °F /  0.2 °C 27.8 °F /  -2.3 °C 30.06 in /  1017.8 hPa West 0.4 mph /  0.6 km/h 2.3 mph /  3.7 km/h 83 % 0.00 in /  0 mm
04:22 32.4 °F /  0.2 °C 27.5 °F /  -2.5 °C 30.06 in /  1017.8 hPa West 1.6 mph /  2.6 km/h 3.5 mph /  5.6 km/h 82 % 0.00 in /  0 mm
04:27 32.4 °F /  0.2 °C 27.5 °F /  -2.5 °C 30.07 in /  1018.2 hPa West 1.4 mph /  2.3 km/h 2.3 mph /  3.7 km/h 82 % 0.00 in /  0 mm
04:32 32.5 °F /  0.3 °C 27.6 °F /  -2.4 °C 30.06 in /  1017.8 hPa West 1.2 mph /  1.9 km/h 3.5 mph /  5.6 km/h 82 % 0.00 in /  0 mm
04:37 32.5 °F /  0.3 °C 27.3 °F /  -2.6 °C 30.07 in /  1018.2 hPa West 1.7 mph /  2.7 km/h 2.3 mph /  3.7 km/h 81 % 0.00 in /  0 mm
04:42 32.5 °F /  0.3 °C 27.3 °F /  -2.6 °C 30.07 in /  1018.2 hPa West 1.4 mph /  2.3 km/h 3.5 mph /  5.6 km/h 81 % 0.00 in /  0 mm
04:47 32.5 °F /  0.3 °C 27.0 °F /  -2.8 °C 30.07 in /  1018.2 hPa West 1.1 mph /  1.8 km/h 3.5 mph /  5.6 km/h 80 % 0.00 in /  0 mm
04:52 32.5 °F /  0.3 °C 27.0 °F /  -2.8 °C 30.07 in /  1018.2 hPa West 1.0 mph /  1.6 km/h 2.3 mph /  3.7 km/h 80 % 0.00 in /  0 mm
04:57 32.5 °F /  0.3 °C 27.0 °F /  -2.8 °C 30.08 in /  1018.5 hPa West 1.9 mph /  3.1 km/h 3.5 mph /  5.6 km/h 80 % 0.00 in /  0 mm
05:02 32.5 °F /  0.3 °C 27.0 °F /  -2.8 °C 30.08 in /  1018.5 hPa West 1.3 mph /  2.1 km/h 2.3 mph /  3.7 km/h 80 % 0.00 in /  0 mm
05:07 32.5 °F /  0.3 °C 27.0 °F /  -2.8 °C 30.07 in /  1018.2 hPa WSW 1.6 mph /  2.6 km/h 3.5 mph /  5.6 km/h 80 % 0.00 in /  0 mm
05:12 32.5 °F /  0.3 °C 27.0 °F /  -2.8 °C 30.07 in /  1018.2 hPa WSW 3.2 mph /  5.1 km/h 6.9 mph /  11.1 km/h 80 % 0.00 in /  0 mm
05:17 32.6 °F /  0.3 °C 27.1 °F /  -2.7 °C 30.08 in /  1018.5 hPa WSW 2.6 mph /  4.2 km/h 4.0 mph /  6.4 km/h 80 % 0.00 in /  0 mm
05:22 32.6 °F /  0.3 °C 26.8 °F /  -2.9 °C 30.08 in /  1018.5 hPa WSW 1.1 mph /  1.8 km/h 2.3 mph /  3.7 km/h 79 % 0.00 in /  0 mm
05:27 32.7 °F /  0.4 °C 27.2 °F /  -2.7 °C 30.08 in /  1018.5 hPa WSW 2.0 mph /  3.2 km/h 3.5 mph /  5.6 km/h 80 % 0.00 in /  0 mm
05:32 32.7 °F /  0.4 °C 27.2 °F /  -2.7 °C 30.08 in /  1018.5 hPa WSW 2.3 mph /  3.7 km/h 3.5 mph /  5.6 km/h 80 % 0.00 in /  0 mm
05:37 32.8 °F /  0.4 °C 27.3 °F /  -2.6 °C 30.08 in /  1018.5 hPa WSW 2.3 mph /  3.7 km/h 4.6 mph /  7.4 km/h 80 % 0.00 in /  0 mm
05:42 32.8 °F /  0.4 °C 27.0 °F /  -2.8 °C 30.08 in /  1018.5 hPa West 0.4 mph /  0.6 km/h 2.0 mph /  3.2 km/h 79 % 0.00 in /  0 mm
05:47 32.9 °F /  0.5 °C 27.1 °F /  -2.7 °C 30.08 in /  1018.5 hPa West 2.3 mph /  3.7 km/h 3.5 mph /  5.6 km/h 79 % 0.00 in /  0 mm
05:52 33.0 °F /  0.6 °C 27.2 °F /  -2.7 °C 30.08 in /  1018.5 hPa West 0.9 mph /  1.4 km/h 2.3 mph /  3.7 km/h 79 % 0.00 in /  0 mm
05:57 33.2 °F /  0.7 °C 27.4 °F /  -2.6 °C 30.08 in /  1018.5 hPa SW 1.7 mph /  2.7 km/h 4.0 mph /  6.4 km/h 79 % 0.00 in /  0 mm
06:02 33.3 °F /  0.7 °C 27.5 °F /  -2.5 °C 30.08 in /  1018.5 hPa WSW 1.3 mph /  2.1 km/h 3.5 mph /  5.6 km/h 79 % 0.00 in /  0 mm
06:07 33.4 °F /  0.8 °C 27.9 °F /  -2.3 °C 30.09 in /  1018.8 hPa WSW 1.0 mph /  1.6 km/h 1.2 mph /  1.9 km/h 80 % 0.00 in /  0 mm
06:12 33.4 °F /  0.8 °C 27.9 °F /  -2.3 °C 30.09 in /  1018.8 hPa WSW 1.1 mph /  1.8 km/h 2.0 mph /  3.2 km/h 80 % 0.00 in /  0 mm
06:18 33.4 °F /  0.8 °C 27.9 °F /  -2.3 °C 30.09 in /  1018.8 hPa WSW 0.8 mph /  1.3 km/h 2.3 mph /  3.7 km/h 80 % 0.00 in /  0 mm
06:23 33.4 °F /  0.8 °C 28.2 °F /  -2.1 °C 30.09 in /  1018.8 hPa SW 0.6 mph /  1 km/h 2.3 mph /  3.7 km/h 81 % 0.00 in /  0 mm
06:28 33.4 °F /  0.8 °C 28.2 °F /  -2.1 °C 30.09 in /  1018.8 hPa SW 0.5 mph /  0.8 km/h 2.3 mph /  3.7 km/h 81 % 0.00 in /  0 mm
06:33 33.4 °F /  0.8 °C 28.2 °F /  -2.1 °C 30.10 in /  1019.2 hPa Calm     81 % 0.00 in /  0 mm
06:38 33.4 °F /  0.8 °C 28.5 °F /  -1.9 °C 30.10 in /  1019.2 hPa SW 0.6 mph /  1 km/h 3.0 mph /  4.8 km/h 82 % 0.00 in /  0 mm
06:43 33.3 °F /  0.7 °C 28.4 °F /  -2 °C 30.10 in /  1019.2 hPa WSW 0.1 mph /  0.2 km/h 2.3 mph /  3.7 km/h 82 % 0.00 in /  0 mm
06:48 33.3 °F /  0.7 °C 28.7 °F /  -1.8 °C 30.10 in /  1019.2 hPa Calm     83 % 0.00 in /  0 mm
06:53 33.3 °F /  0.7 °C 28.7 °F /  -1.8 °C 30.10 in /  1019.2 hPa Calm   1.2 mph /  1.9 km/h 83 % 0.00 in /  0 mm
06:58 33.4 °F /  0.8 °C 29.1 °F /  -1.6 °C 30.10 in /  1019.2 hPa WSW 1.1 mph /  1.8 km/h 2.3 mph /  3.7 km/h 84 % 0.00 in /  0 mm
07:03 33.5 °F /  0.8 °C 29.2 °F /  -1.6 °C 30.11 in /  1019.5 hPa WSW 1.4 mph /  2.3 km/h 2.3 mph /  3.7 km/h 84 % 0.00 in /  0 mm
07:08 33.7 °F /  0.9 °C 29.7 °F /  -1.3 °C 30.11 in /  1019.5 hPa WSW 0.4 mph /  0.6 km/h 2.3 mph /  3.7 km/h 85 % 0.00 in /  0 mm
07:13 34.0 °F /  1.1 °C 30.0 °F /  -1.1 °C 30.11 in /  1019.5 hPa WSW 0.2 mph /  0.3 km/h 2.3 mph /  3.7 km/h 85 % 0.00 in /  0 mm
07:18 34.3 °F /  1.3 °C 30.3 °F /  -0.9 °C 30.12 in /  1019.9 hPa WSW 1.0 mph /  1.6 km/h 2.0 mph /  3.2 km/h 85 % 0.00 in /  0 mm
07:23 34.7 °F /  1.5 °C 30.7 °F /  -0.7 °C 30.12 in /  1019.9 hPa WSW 0.2 mph /  0.3 km/h 1.2 mph /  1.9 km/h 85 % 0.00 in /  0 mm
07:28 35.1 °F /  1.7 °C 31.0 °F /  -0.6 °C 30.12 in /  1019.9 hPa Calm   1.0 mph /  1.6 km/h 85 % 0.00 in /  0 mm
07:34 35.5 °F /  1.9 °C 31.1 °F /  -0.5 °C 30.12 in /  1019.9 hPa Calm   1.2 mph /  1.9 km/h 84 % 0.00 in /  0 mm
07:39 35.9 °F /  2.2 °C 31.5 °F /  -0.3 °C 30.12 in /  1019.9 hPa WSW 0.8 mph /  1.3 km/h 2.3 mph /  3.7 km/h 84 % 0.00 in /  0 mm
07:44 36.3 °F /  2.4 °C 31.6 °F /  -0.2 °C 30.12 in /  1019.9 hPa WSW 0.5 mph /  0.8 km/h 3.5 mph /  5.6 km/h 83 % 0.00 in /  0 mm
07:49 36.7 °F /  2.6 °C 31.7 °F /  -0.2 °C 30.12 in /  1019.9 hPa WSW 0.5 mph /  0.8 km/h 2.3 mph /  3.7 km/h 82 % 0.00 in /  0 mm
07:54 37.1 °F /  2.8 °C 31.5 °F /  -0.3 °C 30.13 in /  1020.2 hPa West 3.3 mph /  5.3 km/h 5.0 mph /  8 km/h 80 % 0.00 in /  0 mm
07:59 37.5 °F /  3.1 °C 31.3 °F /  -0.4 °C 30.13 in /  1020.2 hPa SSW 5.5 mph /  8.9 km/h 6.9 mph /  11.1 km/h 78 % 0.00 in /  0 mm
08:04 38.0 °F /  3.3 °C 31.4 °F /  -0.3 °C 30.13 in /  1020.2 hPa West 2.5 mph /  4 km/h 3.5 mph /  5.6 km/h 77 % 0.00 in /  0 mm
08:09 38.6 °F /  3.7 °C 31.7 °F /  -0.2 °C 30.13 in /  1020.2 hPa WSW 3.5 mph /  5.6 km/h 5.8 mph /  9.3 km/h 76 % 0.00 in /  0 mm
08:14 39.2 °F /  4 °C 31.3 °F /  -0.4 °C 30.14 in /  1020.5 hPa WSW 0.8 mph /  1.3 km/h 3.0 mph /  4.8 km/h 73 % 0.00 in /  0 mm
08:19 39.8 °F /  4.3 °C 31.8 °F /  -0.1 °C 30.14 in /  1020.5 hPa WSW 3.1 mph /  5 km/h 4.6 mph /  7.4 km/h 73 % 0.00 in /  0 mm
08:24 40.4 °F /  4.7 °C 32.1 °F /  0.1 °C 30.14 in /  1020.5 hPa West 3.7 mph /  6 km/h 5.8 mph /  9.3 km/h 72 % 0.00 in /  0 mm
08:29 41.0 °F /  5 °C 32.3 °F /  0.2 °C 30.13 in /  1020.2 hPa WSW 1.9 mph /  3.1 km/h 3.5 mph /  5.6 km/h 71 % 0.00 in /  0 mm
08:34 41.5 °F /  5.3 °C 32.1 °F /  0.1 °C 30.13 in /  1020.2 hPa SW 0.8 mph /  1.3 km/h 4.0 mph /  6.4 km/h 69 % 0.00 in /  0 mm
08:39 42.0 °F /  5.6 °C 31.5 °F /  -0.3 °C 30.13 in /  1020.2 hPa WSW 0.8 mph /  1.3 km/h 3.5 mph /  5.6 km/h 66 % 0.00 in /  0 mm
08:44 42.4 °F /  5.8 °C 31.5 °F /  -0.3 °C 30.13 in /  1020.2 hPa West 4.0 mph /  6.4 km/h 5.8 mph /  9.3 km/h 65 % 0.00 in /  0 mm
08:49 42.8 °F /  6 °C 31.5 °F /  -0.3 °C 30.13 in /  1020.2 hPa WSW 4.9 mph /  7.9 km/h 6.9 mph /  11.1 km/h 64 % 0.00 in /  0 mm
08:54 43.2 °F /  6.2 °C 31.1 °F /  -0.5 °C 30.14 in /  1020.5 hPa WSW 3.2 mph /  5.1 km/h 4.6 mph /  7.4 km/h 62 % 0.00 in /  0 mm
09:00 43.4 °F /  6.3 °C 30.8 °F /  -0.7 °C 30.14 in /  1020.5 hPa West 1.1 mph /  1.8 km/h 3.5 mph /  5.6 km/h 61 % 0.00 in /  0 mm
09:05 43.6 °F /  6.4 °C 31.0 °F /  -0.6 °C 30.14 in /  1020.5 hPa SW 0.1 mph /  0.2 km/h 1.2 mph /  1.9 km/h 61 % 0.00 in /  0 mm
09:10 44.0 °F /  6.7 °C 31.4 °F /  -0.3 °C 30.14 in /  1020.5 hPa West 1.4 mph /  2.3 km/h 3.5 mph /  5.6 km/h 61 % 0.00 in /  0 mm
09:15 44.4 °F /  6.9 °C 30.5 °F /  -0.8 °C 30.14 in /  1020.5 hPa WNW 1.6 mph /  2.6 km/h 5.0 mph /  8 km/h 58 % 0.00 in /  0 mm
09:20 44.7 °F /  7.1 °C 30.0 °F /  -1.1 °C 30.14 in /  1020.5 hPa West 2.6 mph /  4.2 km/h 4.6 mph /  7.4 km/h 56 % 0.00 in /  0 mm
09:25 45.2 °F /  7.3 °C 30.4 °F /  -0.9 °C 30.14 in /  1020.5 hPa West 0.8 mph /  1.3 km/h 2.3 mph /  3.7 km/h 56 % 0.00 in /  0 mm
09:30 45.8 °F /  7.7 °C 30.5 °F /  -0.8 °C 30.14 in /  1020.5 hPa West 1.2 mph /  1.9 km/h 3.5 mph /  5.6 km/h 55 % 0.00 in /  0 mm
09:35 46.4 °F /  8 °C 29.7 °F /  -1.3 °C 30.14 in /  1020.5 hPa West 1.6 mph /  2.6 km/h 3.5 mph /  5.6 km/h 52 % 0.00 in /  0 mm
09:40 46.6 °F /  8.1 °C 28.9 °F /  -1.7 °C 30.14 in /  1020.5 hPa WSW 2.2 mph /  3.5 km/h 4.6 mph /  7.4 km/h 50 % 0.00 in /  0 mm
09:45 47.1 °F /  8.4 °C 30.4 °F /  -0.9 °C 30.14 in /  1020.5 hPa NW 1.8 mph /  2.9 km/h 4.0 mph /  6.4 km/h 52 % 0.00 in /  0 mm
09:50 47.3 °F /  8.5 °C 29.1 °F /  -1.6 °C 30.14 in /  1020.5 hPa WNW 2.0 mph /  3.2 km/h 3.5 mph /  5.6 km/h 49 % 0.00 in /  0 mm
09:55 47.6 °F /  8.7 °C 29.9 °F /  -1.2 °C 30.14 in /  1020.5 hPa NW 1.5 mph /  2.4 km/h 3.5 mph /  5.6 km/h 50 % 0.00 in /  0 mm
10:00 48.1 °F /  8.9 °C 29.3 °F /  -1.5 °C 30.14 in /  1020.5 hPa West 1.2 mph /  1.9 km/h 3.5 mph /  5.6 km/h 48 % 0.00 in /  0 mm
10:05 48.3 °F /  9.1 °C 29.0 °F /  -1.7 °C 30.14 in /  1020.5 hPa WNW 1.6 mph /  2.6 km/h 4.0 mph /  6.4 km/h 47 % 0.00 in /  0 mm
10:10 48.6 °F /  9.2 °C 28.7 °F /  -1.8 °C 30.14 in /  1020.5 hPa WNW 2.0 mph /  3.2 km/h 4.6 mph /  7.4 km/h 46 % 0.00 in /  0 mm
10:15 49.0 °F /  9.4 °C 29.6 °F /  -1.3 °C 30.14 in /  1020.5 hPa NW 0.5 mph /  0.8 km/h 2.0 mph /  3.2 km/h 47 % 0.00 in /  0 mm
10:20 49.4 °F /  9.7 °C 30.0 °F /  -1.1 °C 30.14 in /  1020.5 hPa NNW 1.4 mph /  2.3 km/h 3.0 mph /  4.8 km/h 47 % 0.00 in /  0 mm
10:25 49.9 °F /  9.9 °C 30.5 °F /  -0.8 °C 30.13 in /  1020.2 hPa NW 3.0 mph /  4.8 km/h 4.6 mph /  7.4 km/h 47 % 0.00 in /  0 mm
10:30 50.3 °F /  10.2 °C 29.7 °F /  -1.3 °C 30.13 in /  1020.2 hPa Calm   3.5 mph /  5.6 km/h 45 % 0.00 in /  0 mm
10:35 50.8 °F /  10.4 °C 28.5 °F /  -1.9 °C 30.13 in /  1020.2 hPa WNW 3.5 mph /  5.6 km/h 3.5 mph /  5.6 km/h 42 % 0.00 in /  0 mm
10:40 51.3 °F /  10.7 °C 31.2 °F /  -0.4 °C 30.13 in /  1020.2 hPa NNW 0.9 mph /  1.4 km/h 3.5 mph /  5.6 km/h 46 % 0.00 in /  0 mm
10:45 51.7 °F /  10.9 °C 28.7 °F /  -1.8 °C 30.13 in /  1020.2 hPa WNW 4.1 mph /  6.6 km/h 5.0 mph /  8 km/h 41 % 0.00 in /  0 mm
10:50 52.2 °F /  11.2 °C 30.9 °F /  -0.6 °C 30.13 in /  1020.2 hPa WNW 0.7 mph /  1.1 km/h 4.6 mph /  7.4 km/h 44 % 0.00 in /  0 mm
10:55 52.4 °F /  11.3 °C 30.0 °F /  -1.1 °C 30.13 in /  1020.2 hPa WSW 0.8 mph /  1.3 km/h 3.5 mph /  5.6 km/h 42 % 0.00 in /  0 mm
11:01 52.6 °F /  11.4 °C 26.4 °F /  -3.1 °C 30.13 in /  1020.2 hPa WNW 2.9 mph /  4.7 km/h 5.0 mph /  8 km/h 36 % 0.00 in /  0 mm
11:06 52.6 °F /  11.4 °C 27.0 °F /  -2.8 °C 30.13 in /  1020.2 hPa West 1.3 mph /  2.1 km/h 4.6 mph /  7.4 km/h 37 % 0.00 in /  0 mm
11:11 52.9 °F /  11.6 °C 28.0 °F /  -2.2 °C 30.13 in /  1020.2 hPa SW 3.7 mph /  6 km/h 4.6 mph /  7.4 km/h 38 % 0.00 in /  0 mm
11:16 53.1 °F /  11.7 °C 28.8 °F /  -1.8 °C 30.13 in /  1020.2 hPa WSW 1.7 mph /  2.7 km/h 5.8 mph /  9.3 km/h 39 % 0.00 in /  0 mm
11:21 53.4 °F /  11.9 °C 27.1 °F /  -2.7 °C 30.13 in /  1020.2 hPa NW 3.2 mph /  5.1 km/h 4.6 mph /  7.4 km/h 36 % 0.00 in /  0 mm
11:26 53.5 °F /  11.9 °C 25.8 °F /  -3.4 °C 30.13 in /  1020.2 hPa West 1.4 mph /  2.3 km/h 3.5 mph /  5.6 km/h 34 % 0.00 in /  0 mm
11:31 53.8 °F /  12.1 °C 27.4 °F /  -2.6 °C 30.13 in /  1020.2 hPa WSW 4.5 mph /  7.2 km/h 6.0 mph /  9.7 km/h 36 % 0.00 in /  0 mm
11:36 54.0 °F /  12.2 °C 26.2 °F /  -3.2 °C 30.13 in /  1020.2 hPa South 5.2 mph /  8.4 km/h 6.9 mph /  11.1 km/h 34 % 0.00 in /  0 mm
11:41 54.3 °F /  12.4 °C 27.9 °F /  -2.3 °C 30.13 in /  1020.2 hPa WNW 1.8 mph /  2.9 km/h 6.9 mph /  11.1 km/h 36 % 0.00 in /  0 mm
11:46 54.5 °F /  12.5 °C 29.4 °F /  -1.4 °C 30.13 in /  1020.2 hPa West 0.1 mph /  0.2 km/h 4.6 mph /  7.4 km/h 38 % 0.00 in /  0 mm
11:51 54.7 °F /  12.6 °C 28.9 °F /  -1.7 °C 30.12 in /  1019.9 hPa WSW 6.7 mph /  10.8 km/h 10.0 mph /  16.1 km/h 37 % 0.00 in /  0 mm
11:56 54.5 °F /  12.5 °C 26.0 °F /  -3.3 °C 30.12 in /  1019.9 hPa WSW 3.6 mph /  5.8 km/h 9.0 mph /  14.5 km/h 33 % 0.00 in /  0 mm
12:01 54.2 °F /  12.3 °C 26.4 °F /  -3.1 °C 30.12 in /  1019.9 hPa SW 3.7 mph /  6 km/h 7.0 mph /  11.3 km/h 34 % 0.00 in /  0 mm
12:06 54.3 °F /  12.4 °C 27.2 °F /  -2.7 °C 30.11 in /  1019.5 hPa NW 2.9 mph /  4.7 km/h 5.8 mph /  9.3 km/h 35 % 0.00 in /  0 mm
12:11 54.4 °F /  12.4 °C 27.3 °F /  -2.6 °C 30.11 in /  1019.5 hPa WSW 2.6 mph /  4.2 km/h 4.0 mph /  6.4 km/h 35 % 0.00 in /  0 mm
12:16 54.5 °F /  12.5 °C 26.7 °F /  -2.9 °C 30.11 in /  1019.5 hPa SW 5.3 mph /  8.5 km/h 6.9 mph /  11.1 km/h 34 % 0.00 in /  0 mm
12:21 54.3 °F /  12.4 °C 25.8 °F /  -3.4 °C 30.11 in /  1019.5 hPa SW 6.0 mph /  9.7 km/h 9.2 mph /  14.8 km/h 33 % 0.00 in /  0 mm
12:26 54.1 °F /  12.3 °C 25.6 °F /  -3.6 °C 30.10 in /  1019.2 hPa WSW 4.6 mph /  7.4 km/h 6.9 mph /  11.1 km/h 33 % 0.00 in /  0 mm
12:32 54.3 °F /  12.4 °C 25.8 °F /  -3.4 °C 30.10 in /  1019.2 hPa SW 3.6 mph /  5.8 km/h 8.1 mph /  13 km/h 33 % 0.00 in /  0 mm
12:37 54.5 °F /  12.5 °C 26.7 °F /  -2.9 °C 30.09 in /  1018.8 hPa WSW 3.7 mph /  6 km/h 9.2 mph /  14.8 km/h 34 % 0.00 in /  0 mm
12:42 54.7 °F /  12.6 °C 28.9 °F /  -1.7 °C 30.09 in /  1018.8 hPa SSW 3.8 mph /  6.1 km/h 6.9 mph /  11.1 km/h 37 % 0.00 in /  0 mm
12:47 55.0 °F /  12.8 °C 28.5 °F /  -1.9 °C 30.09 in /  1018.8 hPa SW 3.3 mph /  5.3 km/h 9.2 mph /  14.8 km/h 36 % 0.00 in /  0 mm
12:52 55.2 °F /  12.9 °C 28.0 °F /  -2.2 °C 30.09 in /  1018.8 hPa SW 2.2 mph /  3.5 km/h 7.0 mph /  11.3 km/h 35 % 0.00 in /  0 mm
12:57 55.4 °F /  13 °C 28.9 °F /  -1.7 °C 30.08 in /  1018.5 hPa WNW 3.1 mph /  5 km/h 4.6 mph /  7.4 km/h 36 % 0.00 in /  0 mm
13:02 55.7 °F /  13.2 °C 31.7 °F /  -0.2 °C 30.08 in /  1018.5 hPa WSW 1.4 mph /  2.3 km/h 7.0 mph /  11.3 km/h 40 % 0.00 in /  0 mm
13:07 55.9 °F /  13.3 °C 30.0 °F /  -1.1 °C 30.08 in /  1018.5 hPa West 1.3 mph /  2.1 km/h 3.5 mph /  5.6 km/h 37 % 0.00 in /  0 mm
13:12 56.0 °F /  13.3 °C 30.1 °F /  -1.1 °C 30.08 in /  1018.5 hPa SW 4.6 mph /  7.4 km/h 6.9 mph /  11.1 km/h 37 % 0.00 in /  0 mm
13:17 56.1 °F /  13.4 °C 30.2 °F /  -1 °C 30.08 in /  1018.5 hPa West 5.8 mph /  9.3 km/h 7.0 mph /  11.3 km/h 37 % 0.00 in /  0 mm
13:22 56.3 °F /  13.5 °C 31.6 °F /  -0.2 °C 30.07 in /  1018.2 hPa SSW 2.6 mph /  4.2 km/h 7.0 mph /  11.3 km/h 39 % 0.00 in /  0 mm
13:27 56.4 °F /  13.6 °C 30.4 °F /  -0.9 °C 30.07 in /  1018.2 hPa WNW 2.8 mph /  4.5 km/h 4.0 mph /  6.4 km/h 37 % 0.00 in /  0 mm
13:32 56.5 °F /  13.6 °C 30.5 °F /  -0.8 °C 30.07 in /  1018.2 hPa WSW 6.3 mph /  10.1 km/h 9.0 mph /  14.5 km/h 37 % 0.00 in /  0 mm
13:37 56.5 °F /  13.6 °C 30.5 °F /  -0.8 °C 30.06 in /  1017.8 hPa SSW 1.2 mph /  1.9 km/h 3.5 mph /  5.6 km/h 37 % 0.00 in /  0 mm
13:42 56.6 °F /  13.7 °C 29.9 °F /  -1.2 °C 30.06 in /  1017.8 hPa West 2.6 mph /  4.2 km/h 4.6 mph /  7.4 km/h 36 % 0.00 in /  0 mm
13:47 56.6 °F /  13.7 °C 29.9 °F /  -1.2 °C 30.06 in /  1017.8 hPa West 1.9 mph /  3.1 km/h 5.8 mph /  9.3 km/h 36 % 0.00 in /  0 mm
13:52 56.6 °F /  13.7 °C 29.9 °F /  -1.2 °C 30.06 in /  1017.8 hPa SSW 1.5 mph /  2.4 km/h 4.0 mph /  6.4 km/h 36 % 0.00 in /  0 mm
13:57 56.6 °F /  13.7 °C 30.6 °F /  -0.8 °C 30.06 in /  1017.8 hPa SW 0.4 mph /  0.6 km/h 3.5 mph /  5.6 km/h 37 % 0.00 in /  0 mm
14:02 56.8 °F /  13.8 °C 30.8 °F /  -0.7 °C 30.05 in /  1017.5 hPa WSW 6.8 mph /  10.9 km/h 9.2 mph /  14.8 km/h 37 % 0.00 in /  0 mm
14:07 56.7 °F /  13.7 °C 30.0 °F /  -1.1 °C 30.05 in /  1017.5 hPa WSW 5.7 mph /  9.2 km/h 7.0 mph /  11.3 km/h 36 % 0.00 in /  0 mm
14:12 56.7 °F /  13.7 °C 30.7 °F /  -0.7 °C 30.05 in /  1017.5 hPa WNW 5.3 mph /  8.5 km/h 8.0 mph /  12.9 km/h 37 % 0.00 in /  0 mm
14:17 56.6 °F /  13.7 °C 29.9 °F /  -1.2 °C 30.05 in /  1017.5 hPa West 4.5 mph /  7.2 km/h 8.1 mph /  13 km/h 36 % 0.00 in /  0 mm
14:22 56.6 °F /  13.7 °C 30.6 °F /  -0.8 °C 30.04 in /  1017.2 hPa West 4.2 mph /  6.8 km/h 9.2 mph /  14.8 km/h 37 % 0.00 in /  0 mm
14:27 56.5 °F /  13.6 °C 29.8 °F /  -1.2 °C 30.04 in /  1017.2 hPa SW 4.8 mph /  7.7 km/h 5.8 mph /  9.3 km/h 36 % 0.00 in /  0 mm
14:33 56.2 °F /  13.4 °C 29.6 °F /  -1.3 °C 30.04 in /  1017.2 hPa WSW 7.4 mph /  11.9 km/h 11.5 mph /  18.5 km/h 36 % 0.00 in /  0 mm
14:38 56.0 °F /  13.3 °C 30.1 °F /  -1.1 °C 30.04 in /  1017.2 hPa SW 3.4 mph /  5.5 km/h 9.2 mph /  14.8 km/h 37 % 0.00 in /  0 mm
14:43 55.9 °F /  13.3 °C 30.0 °F /  -1.1 °C 30.03 in /  1016.8 hPa SW 5.9 mph /  9.5 km/h 9.2 mph /  14.8 km/h 37 % 0.00 in /  0 mm
14:48 55.9 °F /  13.3 °C 30.0 °F /  -1.1 °C 30.03 in /  1016.8 hPa NW 3.9 mph /  6.3 km/h 6.9 mph /  11.1 km/h 37 % 0.00 in /  0 mm
14:53 55.7 °F /  13.2 °C 29.8 °F /  -1.2 °C 30.03 in /  1016.8 hPa WSW 5.5 mph /  8.9 km/h 8.1 mph /  13 km/h 37 % 0.00 in /  0 mm
14:58 55.5 °F /  13.1 °C 29.0 °F /  -1.7 °C 30.02 in /  1016.5 hPa SSW 4.0 mph /  6.4 km/h 9.2 mph /  14.8 km/h 36 % 0.00 in /  0 mm
15:03 55.4 °F /  13 °C 29.5 °F /  -1.4 °C 30.02 in /  1016.5 hPa WNW 3.3 mph /  5.3 km/h 4.0 mph /  6.4 km/h 37 % 0.00 in /  0 mm
15:08 55.3 °F /  12.9 °C 29.4 °F /  -1.4 °C 30.02 in /  1016.5 hPa SW 3.0 mph /  4.8 km/h 5.0 mph /  8 km/h 37 % 0.00 in /  0 mm
15:13 55.0 °F /  12.8 °C 29.2 °F /  -1.6 °C 30.02 in /  1016.5 hPa West 1.9 mph /  3.1 km/h 8.1 mph /  13 km/h 37 % 0.00 in /  0 mm
15:18 54.8 °F /  12.7 °C 29.0 °F /  -1.7 °C 30.02 in /  1016.5 hPa West 2.6 mph /  4.2 km/h 3.5 mph /  5.6 km/h 37 % 0.00 in /  0 mm
15:23 54.7 °F /  12.6 °C 29.6 °F /  -1.3 °C 30.02 in /  1016.5 hPa SW 2.9 mph /  4.7 km/h 8.1 mph /  13 km/h 38 % 0.00 in /  0 mm
15:28 54.6 °F /  12.6 °C 29.5 °F /  -1.4 °C 30.02 in /  1016.5 hPa SW 3.6 mph /  5.8 km/h 5.8 mph /  9.3 km/h 38 % 0.00 in /  0 mm
15:33 54.4 °F /  12.4 °C 29.3 °F /  -1.5 °C 30.02 in /  1016.5 hPa SW 1.1 mph /  1.8 km/h 4.6 mph /  7.4 km/h 38 % 0.00 in /  0 mm
15:38 54.3 °F /  12.4 °C 29.2 °F /  -1.6 °C 30.02 in /  1016.5 hPa SW 5.9 mph /  9.5 km/h 8.1 mph /  13 km/h 38 % 0.00 in /  0 mm
15:43 54.1 °F /  12.3 °C 29.0 °F /  -1.7 °C 30.01 in /  1016.1 hPa WSW 5.7 mph /  9.2 km/h 8.1 mph /  13 km/h 38 % 0.00 in /  0 mm
15:49 54.0 °F /  12.2 °C 28.9 °F /  -1.7 °C 30.01 in /  1016.1 hPa West 3.4 mph /  5.5 km/h 6.9 mph /  11.1 km/h 38 % 0.00 in /  0 mm
15:54 53.9 °F /  12.2 °C 28.8 °F /  -1.8 °C 30.01 in /  1016.1 hPa West 6.0 mph /  9.7 km/h 10.4 mph /  16.7 km/h 38 % 0.00 in /  0 mm
15:59 53.9 °F /  12.2 °C 28.8 °F /  -1.8 °C 30.00 in /  1015.8 hPa West 0.2 mph /  0.3 km/h 2.0 mph /  3.2 km/h 38 % 0.00 in /  0 mm
16:04 53.8 °F /  12.1 °C 29.4 °F /  -1.4 °C 30.01 in /  1016.1 hPa WSW 1.0 mph /  1.6 km/h 6.9 mph /  11.1 km/h 39 % 0.00 in /  0 mm
16:09 53.7 °F /  12.1 °C 28.7 °F /  -1.8 °C 30.00 in /  1015.8 hPa SSW 1.6 mph /  2.6 km/h 4.6 mph /  7.4 km/h 38 % 0.00 in /  0 mm
16:14 53.7 °F /  12.1 °C 28.7 °F /  -1.8 °C 30.00 in /  1015.8 hPa WSW 3.1 mph /  5 km/h 4.6 mph /  7.4 km/h 38 % 0.00 in /  0 mm
16:19 53.6 °F /  12 °C 29.2 °F /  -1.6 °C 30.00 in /  1015.8 hPa West 1.2 mph /  1.9 km/h 3.5 mph /  5.6 km/h 39 % 0.00 in /  0 mm
16:24 53.5 °F /  11.9 °C 29.1 °F /  -1.6 °C 29.99 in /  1015.5 hPa West 4.1 mph /  6.6 km/h 5.8 mph /  9.3 km/h 39 % 0.00 in /  0 mm
16:29 53.4 °F /  11.9 °C 29.7 °F /  -1.3 °C 29.99 in /  1015.5 hPa WSW 3.9 mph /  6.3 km/h 5.8 mph /  9.3 km/h 40 % 0.00 in /  0 mm
16:34 53.3 °F /  11.8 °C 29.6 °F /  -1.3 °C 29.99 in /  1015.5 hPa WSW 1.8 mph /  2.9 km/h 3.5 mph /  5.6 km/h 40 % 0.00 in /  0 mm
16:39 53.2 °F /  11.8 °C 28.9 °F /  -1.7 °C 29.99 in /  1015.5 hPa SW 2.8 mph /  4.5 km/h 4.0 mph /  6.4 km/h 39 % 0.00 in /  0 mm
16:44 53.1 °F /  11.7 °C 28.8 °F /  -1.8 °C 29.99 in /  1015.5 hPa WSW 3.1 mph /  5 km/h 3.5 mph /  5.6 km/h 39 % 0.00 in /  0 mm
16:49 53.1 °F /  11.7 °C 29.4 °F /  -1.4 °C 29.99 in /  1015.5 hPa SSW 3.1 mph /  5 km/h 4.6 mph /  7.4 km/h 40 % 0.00 in /  0 mm
16:54 53.0 °F /  11.7 °C 30.5 °F /  -0.8 °C 29.99 in /  1015.5 hPa South 1.1 mph /  1.8 km/h 3.5 mph /  5.6 km/h 42 % 0.00 in /  0 mm
17:00 52.8 °F /  11.6 °C 30.3 °F /  -0.9 °C 29.99 in /  1015.5 hPa South 2.3 mph /  3.7 km/h 6.9 mph /  11.1 km/h 42 % 0.00 in /  0 mm
17:05 52.6 °F /  11.4 °C 31.3 °F /  -0.4 °C 30.00 in /  1015.8 hPa SSW 2.9 mph /  4.7 km/h 5.8 mph /  9.3 km/h 44 % 0.00 in /  0 mm
17:10 52.3 °F /  11.3 °C 31.0 °F /  -0.6 °C 30.00 in /  1015.8 hPa SSW 1.9 mph /  3.1 km/h 7.0 mph /  11.3 km/h 44 % 0.00 in /  0 mm
17:15 52.0 °F /  11.1 °C 30.7 °F /  -0.7 °C 29.99 in /  1015.5 hPa South 2.0 mph /  3.2 km/h 6.9 mph /  11.1 km/h 44 % 0.00 in /  0 mm
17:20 51.7 °F /  10.9 °C 31.0 °F /  -0.6 °C 29.99 in /  1015.5 hPa South 3.8 mph /  6.1 km/h 6.0 mph /  9.7 km/h 45 % 0.00 in /  0 mm
17:25 51.3 °F /  10.7 °C 30.7 °F /  -0.7 °C 30.00 in /  1015.8 hPa SSW 3.4 mph /  5.5 km/h 5.0 mph /  8 km/h 45 % 0.00 in /  0 mm
17:30 51.0 °F /  10.6 °C 30.4 °F /  -0.9 °C 30.00 in /  1015.8 hPa SSW 3.3 mph /  5.3 km/h 6.9 mph /  11.1 km/h 45 % 0.00 in /  0 mm
17:35 50.8 °F /  10.4 °C 30.7 °F /  -0.7 °C 30.00 in /  1015.8 hPa SSW 3.7 mph /  6 km/h 5.8 mph /  9.3 km/h 46 % 0.00 in /  0 mm
17:40 50.4 °F /  10.2 °C 30.4 °F /  -0.9 °C 30.00 in /  1015.8 hPa South 4.7 mph /  7.6 km/h 8.1 mph /  13 km/h 46 % 0.00 in /  0 mm
17:45 50.0 °F /  10 °C 30.0 °F /  -1.1 °C 30.00 in /  1015.8 hPa SSW 4.7 mph /  7.6 km/h 8.1 mph /  13 km/h 46 % 0.00 in /  0 mm
17:50 49.5 °F /  9.7 °C 29.6 °F /  -1.3 °C 30.00 in /  1015.8 hPa South 2.0 mph /  3.2 km/h 8.1 mph /  13 km/h 46 % 0.00 in /  0 mm
17:55 49.0 °F /  9.4 °C 29.1 °F /  -1.6 °C 30.00 in /  1015.8 hPa South 6.0 mph /  9.7 km/h 8.0 mph /  12.9 km/h 46 % 0.00 in /  0 mm
18:00 48.5 °F /  9.2 °C 29.2 °F /  -1.6 °C 30.00 in /  1015.8 hPa SSW 4.0 mph /  6.4 km/h 5.8 mph /  9.3 km/h 47 % 0.00 in /  0 mm
18:05 48.0 °F /  8.9 °C 29.2 °F /  -1.6 °C 30.00 in /  1015.8 hPa SSW 3.0 mph /  4.8 km/h 3.5 mph /  5.6 km/h 48 % 0.00 in /  0 mm
18:10 47.6 °F /  8.7 °C 28.9 °F /  -1.7 °C 30.00 in /  1015.8 hPa South 4.2 mph /  6.8 km/h 6.9 mph /  11.1 km/h 48 % 0.00 in /  0 mm
18:15 47.2 °F /  8.4 °C 29.0 °F /  -1.7 °C 30.00 in /  1015.8 hPa South 3.6 mph /  5.8 km/h 6.9 mph /  11.1 km/h 49 % 0.00 in /  0 mm
18:21 46.9 °F /  8.3 °C 28.7 °F /  -1.8 °C 30.00 in /  1015.8 hPa South 5.0 mph /  8 km/h 8.0 mph /  12.9 km/h 49 % 0.00 in /  0 mm
18:26 46.5 °F /  8.1 °C 28.9 °F /  -1.7 °C 29.99 in /  1015.5 hPa South 5.0 mph /  8 km/h 10.0 mph /  16.1 km/h 50 % 0.00 in /  0 mm
18:31 46.2 °F /  7.9 °C 28.5 °F /  -1.9 °C 29.99 in /  1015.5 hPa South 5.0 mph /  8 km/h 12.0 mph /  19.3 km/h 50 % 0.00 in /  0 mm
18:36 45.9 °F /  7.7 °C 28.8 °F /  -1.8 °C 30.00 in /  1015.8 hPa South 5.0 mph /  8 km/h 13.0 mph /  20.9 km/h 51 % 0.00 in /  0 mm
18:41 45.6 °F /  7.6 °C 29.0 °F /  -1.7 °C 30.00 in /  1015.8 hPa South 5.0 mph /  8 km/h 9.0 mph /  14.5 km/h 52 % 0.00 in /  0 mm
18:46 45.4 °F /  7.4 °C 28.8 °F /  -1.8 °C 30.00 in /  1015.8 hPa South 5.0 mph /  8 km/h 15.0 mph /  24.1 km/h 52 % 0.00 in /  0 mm
18:51 45.2 °F /  7.3 °C 29.1 °F /  -1.6 °C 29.99 in /  1015.5 hPa SSW 7.0 mph /  11.3 km/h 10.0 mph /  16.1 km/h 53 % 0.00 in /  0 mm
18:56 45.0 °F /  7.2 °C 29.3 °F /  -1.5 °C 29.99 in /  1015.5 hPa SSW 7.0 mph /  11.3 km/h 13.0 mph /  20.9 km/h 54 % 0.00 in /  0 mm
19:01 44.7 °F /  7.1 °C 29.1 °F /  -1.6 °C 29.99 in /  1015.5 hPa South 5.6 mph /  9 km/h 10.4 mph /  16.7 km/h 54 % 0.00 in /  0 mm
19:06 44.5 °F /  6.9 °C 28.9 °F /  -1.7 °C 29.99 in /  1015.5 hPa South 5.4 mph /  8.7 km/h 11.5 mph /  18.5 km/h 54 % 0.00 in /  0 mm
19:11 44.3 °F /  6.8 °C 28.7 °F /  -1.8 °C 29.99 in /  1015.5 hPa SW 8.8 mph /  14.2 km/h 13.8 mph /  22.2 km/h 54 % 0.00 in /  0 mm
19:16 44.2 °F /  6.8 °C 29.0 °F /  -1.7 °C 29.99 in /  1015.5 hPa SSE 5.1 mph /  8.2 km/h 7.0 mph /  11.3 km/h 55 % 0.00 in /  0 mm
19:21 44.0 °F /  6.7 °C 28.9 °F /  -1.7 °C 30.00 in /  1015.8 hPa SSW 7.6 mph /  12.2 km/h 11.5 mph /  18.5 km/h 55 % 0.00 in /  0 mm
19:26 43.9 °F /  6.6 °C 28.8 °F /  -1.8 °C 29.99 in /  1015.5 hPa SSW 5.4 mph /  8.7 km/h 9.2 mph /  14.8 km/h 55 % 0.00 in /  0 mm
19:31 43.8 °F /  6.6 °C 28.7 °F /  -1.8 °C 29.99 in /  1015.5 hPa South 6.2 mph /  10 km/h 11.0 mph /  17.7 km/h 55 % 0.00 in /  0 mm
19:36 43.7 °F /  6.5 °C 28.6 °F /  -1.9 °C 29.99 in /  1015.5 hPa South 9.0 mph /  14.5 km/h 13.8 mph /  22.2 km/h 55 % 0.00 in /  0 mm
19:41 43.6 °F /  6.4 °C 28.5 °F /  -1.9 °C 29.99 in /  1015.5 hPa SSW 6.8 mph /  10.9 km/h 12.7 mph /  20.4 km/h 55 % 0.00 in /  0 mm
19:46 43.6 °F /  6.4 °C 28.5 °F /  -1.9 °C 29.99 in /  1015.5 hPa SSW 6.4 mph /  10.3 km/h 8.1 mph /  13 km/h 55 % 0.00 in /  0 mm
19:51 43.6 °F /  6.4 °C 28.9 °F /  -1.7 °C 29.99 in /  1015.5 hPa South 5.7 mph /  9.2 km/h 8.1 mph /  13 km/h 56 % 0.00 in /  0 mm
19:56 43.6 °F /  6.4 °C 28.9 °F /  -1.7 °C 29.99 in /  1015.5 hPa South 6.6 mph /  10.6 km/h 11.5 mph /  18.5 km/h 56 % 0.00 in /  0 mm
20:01 43.5 °F /  6.4 °C 28.8 °F /  -1.8 °C 29.99 in /  1015.5 hPa South 4.6 mph /  7.4 km/h 11.5 mph /  18.5 km/h 56 % 0.00 in /  0 mm
20:06 43.4 °F /  6.3 °C 29.2 °F /  -1.6 °C 29.99 in /  1015.5 hPa SSW 3.3 mph /  5.3 km/h 7.0 mph /  11.3 km/h 57 % 0.00 in /  0 mm
20:11 43.4 °F /  6.3 °C 29.2 °F /  -1.6 °C 29.99 in /  1015.5 hPa South 3.1 mph /  5 km/h 8.1 mph /  13 km/h 57 % 0.00 in /  0 mm
20:16 43.3 °F /  6.3 °C 29.5 °F /  -1.4 °C 29.99 in /  1015.5 hPa SSW 4.5 mph /  7.2 km/h 6.9 mph /  11.1 km/h 58 % 0.00 in /  0 mm
20:22 43.2 °F /  6.2 °C 29.4 °F /  -1.4 °C 29.99 in /  1015.5 hPa South 4.9 mph /  7.9 km/h 9.2 mph /  14.8 km/h 58 % 0.00 in /  0 mm
20:27 43.1 °F /  6.2 °C 29.7 °F /  -1.3 °C 29.99 in /  1015.5 hPa SSW 2.8 mph /  4.5 km/h 8.1 mph /  13 km/h 59 % 0.00 in /  0 mm
20:32 43.1 °F /  6.2 °C 29.7 °F /  -1.3 °C 29.99 in /  1015.5 hPa South 4.1 mph /  6.6 km/h 6.0 mph /  9.7 km/h 59 % 0.00 in /  0 mm
20:37 43.0 °F /  6.1 °C 30.1 °F /  -1.1 °C 29.99 in /  1015.5 hPa SSW 6.4 mph /  10.3 km/h 10.4 mph /  16.7 km/h 60 % 0.00 in /  0 mm
20:42 43.0 °F /  6.1 °C 30.1 °F /  -1.1 °C 29.99 in /  1015.5 hPa SSW 3.6 mph /  5.8 km/h 5.8 mph /  9.3 km/h 60 % 0.00 in /  0 mm
20:47 42.9 °F /  6.1 °C 30.4 °F /  -0.9 °C 29.99 in /  1015.5 hPa SSW 4.6 mph /  7.4 km/h 6.9 mph /  11.1 km/h 61 % 0.00 in /  0 mm
20:52 43.0 °F /  6.1 °C 30.5 °F /  -0.8 °C 29.99 in /  1015.5 hPa SSW 3.1 mph /  5 km/h 6.9 mph /  11.1 km/h 61 % 0.00 in /  0 mm
20:57 42.9 °F /  6.1 °C 30.4 °F /  -0.9 °C 29.99 in /  1015.5 hPa South 4.4 mph /  7.1 km/h 8.1 mph /  13 km/h 61 % 0.00 in /  0 mm
21:02 42.9 °F /  6.1 °C 30.8 °F /  -0.7 °C 29.99 in /  1015.5 hPa South 3.5 mph /  5.6 km/h 5.8 mph /  9.3 km/h 62 % 0.00 in /  0 mm
21:07 42.8 °F /  6 °C 30.7 °F /  -0.7 °C 29.98 in /  1015.1 hPa SSE 5.8 mph /  9.3 km/h 10.4 mph /  16.7 km/h 62 % 0.00 in /  0 mm
21:08 42.9 °F /  6.1 °C 30.8 °F /  -0.7 °C 29.98 in /  1015.1 hPa South 2.9 mph /  4.7 km/h 6.0 mph /  9.7 km/h 62 % 0.00 in /  0 mm
21:13 42.8 °F /  6 °C 30.7 °F /  -0.7 °C 29.98 in /  1015.1 hPa SSW 5.5 mph /  8.9 km/h 9.2 mph /  14.8 km/h 62 % 0.00 in /  0 mm
21:18 42.7 °F /  5.9 °C 31.0 °F /  -0.6 °C 29.98 in /  1015.1 hPa SSW 3.7 mph /  6 km/h 9.2 mph /  14.8 km/h 63 % 0.00 in /  0 mm
21:23 42.7 °F /  5.9 °C 31.0 °F /  -0.6 °C 29.98 in /  1015.1 hPa SSW 4.9 mph /  7.9 km/h 6.9 mph /  11.1 km/h 63 % 0.00 in /  0 mm
21:28 42.6 °F /  5.9 °C 31.3 °F /  -0.4 °C 29.97 in /  1014.8 hPa SW 3.4 mph /  5.5 km/h 10.0 mph /  16.1 km/h 64 % 0.00 in /  0 mm
21:33 42.6 °F /  5.9 °C 31.3 °F /  -0.4 °C 29.97 in /  1014.8 hPa South 3.6 mph /  5.8 km/h 5.8 mph /  9.3 km/h 64 % 0.00 in /  0 mm
21:39 42.5 °F /  5.8 °C 31.2 °F /  -0.4 °C 29.97 in /  1014.8 hPa South 4.5 mph /  7.2 km/h 9.2 mph /  14.8 km/h 64 % 0.00 in /  0 mm
21:44 42.5 °F /  5.8 °C 31.6 °F /  -0.2 °C 29.97 in /  1014.8 hPa SSW 3.8 mph /  6.1 km/h 6.9 mph /  11.1 km/h 65 % 0.00 in /  0 mm
21:49 42.5 °F /  5.8 °C 31.6 °F /  -0.2 °C 29.97 in /  1014.8 hPa South 2.7 mph /  4.3 km/h 6.9 mph /  11.1 km/h 65 % 0.00 in /  0 mm
21:54 42.4 °F /  5.8 °C 31.5 °F /  -0.3 °C 29.96 in /  1014.4 hPa SSW 5.2 mph /  8.4 km/h 8.1 mph /  13 km/h 65 % 0.00 in /  0 mm
21:59 42.4 °F /  5.8 °C 31.8 °F /  -0.1 °C 29.96 in /  1014.4 hPa SSW 2.3 mph /  3.7 km/h 6.0 mph /  9.7 km/h 66 % 0.00 in /  0 mm
22:04 42.3 °F /  5.7 °C 31.7 °F /  -0.2 °C 29.96 in /  1014.4 hPa South 5.8 mph /  9.3 km/h 8.1 mph /  13 km/h 66 % 0.00 in /  0 mm
22:09 42.2 °F /  5.7 °C 31.6 °F /  -0.2 °C 29.96 in /  1014.4 hPa SSW 1.8 mph /  2.9 km/h 5.8 mph /  9.3 km/h 66 % 0.00 in /  0 mm
22:14 42.2 °F /  5.7 °C 31.6 °F /  -0.2 °C 29.95 in /  1014.1 hPa SSE 3.0 mph /  4.8 km/h 6.9 mph /  11.1 km/h 66 % 0.00 in /  0 mm
22:19 42.1 °F /  5.6 °C 31.9 °F /  -0.1 °C 29.95 in /  1014.1 hPa SW 3.8 mph /  6.1 km/h 4.6 mph /  7.4 km/h 67 % 0.00 in /  0 mm
22:24 42.0 °F /  5.6 °C 31.8 °F /  -0.1 °C 29.95 in /  1014.1 hPa SSW 4.7 mph /  7.6 km/h 8.1 mph /  13 km/h 67 % 0.00 in /  0 mm
22:29 42.0 °F /  5.6 °C 31.8 °F /  -0.1 °C 29.95 in /  1014.1 hPa SSW 4.9 mph /  7.9 km/h 6.0 mph /  9.7 km/h 67 % 0.00 in /  0 mm
22:34 42.0 °F /  5.6 °C 31.8 °F /  -0.1 °C 29.95 in /  1014.1 hPa South 4.9 mph /  7.9 km/h 9.2 mph /  14.8 km/h 67 % 0.00 in /  0 mm
22:39 42.0 °F /  5.6 °C 32.2 °F /  0.1 °C 29.95 in /  1014.1 hPa SSW 5.8 mph /  9.3 km/h 7.0 mph /  11.3 km/h 68 % 0.00 in /  0 mm
22:44 42.0 °F /  5.6 °C 32.2 °F /  0.1 °C 29.95 in /  1014.1 hPa South 4.1 mph /  6.6 km/h 6.9 mph /  11.1 km/h 68 % 0.00 in /  0 mm
22:49 41.9 °F /  5.5 °C 32.1 °F /  0.1 °C 29.95 in /  1014.1 hPa SSW 4.2 mph /  6.8 km/h 7.0 mph /  11.3 km/h 68 % 0.00 in /  0 mm
22:54 42.0 °F /  5.6 °C 32.2 °F /  0.1 °C 29.94 in /  1013.8 hPa South 4.7 mph /  7.6 km/h 8.0 mph /  12.9 km/h 68 % 0.00 in /  0 mm
22:59 42.0 °F /  5.6 °C 32.2 °F /  0.1 °C 29.95 in /  1014.1 hPa South 5.6 mph /  9 km/h 6.9 mph /  11.1 km/h 68 % 0.00 in /  0 mm
23:04 42.0 °F /  5.6 °C 31.8 °F /  -0.1 °C 29.94 in /  1013.8 hPa WSW 2.6 mph /  4.2 km/h 10.4 mph /  16.7 km/h 67 % 0.00 in /  0 mm
23:10 42.0 °F /  5.6 °C 31.8 °F /  -0.1 °C 29.95 in /  1014.1 hPa South 2.2 mph /  3.5 km/h 5.8 mph /  9.3 km/h 67 % 0.00 in /  0 mm
23:15 42.0 °F /  5.6 °C 31.8 °F /  -0.1 °C 29.94 in /  1013.8 hPa SW 1.5 mph /  2.4 km/h 3.5 mph /  5.6 km/h 67 % 0.00 in /  0 mm
23:20 41.9 °F /  5.5 °C 31.7 °F /  -0.2 °C 29.95 in /  1014.1 hPa SW 4.1 mph /  6.6 km/h 5.8 mph /  9.3 km/h 67 % 0.00 in /  0 mm
23:25 41.9 °F /  5.5 °C 31.7 °F /  -0.2 °C 29.94 in /  1013.8 hPa SSW 5.7 mph /  9.2 km/h 6.9 mph /  11.1 km/h 67 % 0.00 in /  0 mm
23:30 41.9 °F /  5.5 °C 31.7 °F /  -0.2 °C 29.94 in /  1013.8 hPa SSW 3.0 mph /  4.8 km/h 6.9 mph /  11.1 km/h 67 % 0.00 in /  0 mm
23:35 41.9 °F /  5.5 °C 31.7 °F /  -0.2 °C 29.95 in /  1014.1 hPa SSW 3.2 mph /  5.1 km/h 6.9 mph /  11.1 km/h 67 % 0.00 in /  0 mm
23:40 41.9 °F /  5.5 °C 31.7 °F /  -0.2 °C 29.94 in /  1013.8 hPa SSW 0.8 mph /  1.3 km/h 6.0 mph /  9.7 km/h 67 % 0.00 in /  0 mm
23:45 41.9 °F /  5.5 °C 31.7 °F /  -0.2 °C 29.94 in /  1013.8 hPa SSW 4.3 mph /  6.9 km/h 8.1 mph /  13 km/h 67 % 0.00 in /  0 mm
23:50 42.0 °F /  5.6 °C 31.8 °F /  -0.1 °C 29.94 in /  1013.8 hPa South 3.9 mph /  6.3 km/h 9.0 mph /  14.5 km/h 67 % 0.00 in /  0 mm
23:55 42.0 °F /  5.6 °C 31.8 °F /  -0.1 °C 29.94 in /  1013.8 hPa SSW 3.6 mph /  5.8 km/h 5.8 mph /  9.3 km/h 67 % 0.00 in /  0 mm
Crab Meadow Weather
Compliments of Weather Underground - 3 mb

Script developed by  Jim McMurry - jmcmurry@mwt.net Adapted for the template by  Wim van der Kuil - Leuven-Template.eu

Lightning: Lightning's return stroke is hotter than the surface of the sun. Lightning is 50,000 degrees F. The sun is about 11,000 degrees F.